createdAt,value
2023-04-08T00:00:50.279Z,0.50
2023-04-08T00:01:50.347Z,0.52
2023-04-08T00:02:50.325Z,0.52
2023-04-08T00:03:50.392Z,0.51
2023-04-08T00:04:50.480Z,0.52
2023-04-08T00:05:50.290Z,0.51
2023-04-08T00:06:50.280Z,0.51
2023-04-08T00:07:50.233Z,0.52
2023-04-08T00:08:50.510Z,0.51
2023-04-08T00:09:50.252Z,0.51
2023-04-08T00:10:50.327Z,0.51
2023-04-08T00:11:50.325Z,0.50
2023-04-08T00:12:50.338Z,0.51
2023-04-08T00:13:50.434Z,0.50
2023-04-08T00:14:50.454Z,0.51
2023-04-08T00:15:50.542Z,0.51
2023-04-08T00:16:50.634Z,0.51
2023-04-08T00:17:50.642Z,0.52
2023-04-08T00:18:50.879Z,0.51
2023-04-08T00:19:50.730Z,0.52
2023-04-08T00:20:50.830Z,0.51
2023-04-08T00:21:50.904Z,0.51
2023-04-08T00:22:50.930Z,0.51
2023-04-08T00:23:51.021Z,0.51
2023-04-08T00:24:51.064Z,0.51
2023-04-08T00:25:51.161Z,0.52
2023-04-08T00:26:51.169Z,0.52
2023-04-08T00:27:51.249Z,0.52
2023-04-08T00:28:51.685Z,0.51
2023-04-08T00:29:51.348Z,0.51
2023-04-08T00:30:51.474Z,0.52
2023-04-08T00:31:51.508Z,0.51
2023-04-08T00:32:51.558Z,0.51
2023-04-08T00:33:51.598Z,0.51
2023-04-08T00:34:51.633Z,0.52
2023-04-08T00:35:51.735Z,0.51
2023-04-08T00:36:51.771Z,0.51
2023-04-08T00:37:51.871Z,0.52
2023-04-08T00:38:52.053Z,0.52
2023-04-08T00:39:51.976Z,0.52
2023-04-08T00:40:52.053Z,0.52
2023-04-08T00:41:52.067Z,0.52
2023-04-08T00:42:52.159Z,0.52
2023-04-08T00:43:52.210Z,0.52
2023-04-08T00:44:52.285Z,0.51
2023-04-08T00:45:52.347Z,0.52
2023-04-08T00:46:52.330Z,0.51
2023-04-08T00:47:52.710Z,0.52
2023-04-08T00:48:52.580Z,0.52
2023-04-08T00:49:52.502Z,0.52
2023-04-08T00:50:52.571Z,0.52
2023-04-08T00:51:52.632Z,0.52
2023-04-08T00:52:52.680Z,0.52
2023-04-08T00:53:52.741Z,0.52
2023-04-08T00:54:52.789Z,0.52
2023-04-08T00:55:52.872Z,0.51
2023-04-08T00:56:52.931Z,0.51
2023-04-08T00:57:52.982Z,0.51
2023-04-08T00:58:53.032Z,0.52
2023-04-08T00:59:53.087Z,0.52
2023-04-08T01:00:53.131Z,0.53
2023-04-08T01:01:53.313Z,0.52
2023-04-08T01:02:53.322Z,0.52
2023-04-08T01:03:53.377Z,0.51
2023-04-08T01:04:53.336Z,0.51
2023-04-08T01:05:53.345Z,0.52
2023-04-08T01:06:53.408Z,0.52
2023-04-08T01:07:53.468Z,0.52
2023-04-08T01:08:53.465Z,0.52
2023-04-08T01:09:53.508Z,0.53
2023-04-08T01:10:53.578Z,0.52
2023-04-08T01:11:53.646Z,0.52
2023-04-08T01:12:53.748Z,0.52
2023-04-08T01:13:53.807Z,0.52
2023-04-08T01:14:53.821Z,0.53
2023-04-08T01:15:53.984Z,0.53
2023-04-08T01:16:53.944Z,0.52
2023-04-08T01:17:54.035Z,0.53
2023-04-08T01:18:54.052Z,0.52
2023-04-08T01:19:54.110Z,0.52
2023-04-08T01:20:54.167Z,0.52
2023-04-08T01:21:54.218Z,0.52
2023-04-08T01:22:54.279Z,0.53
2023-04-08T01:23:54.325Z,0.53
2023-04-08T01:24:54.387Z,0.52
2023-04-08T01:25:54.440Z,0.51
2023-04-08T01:26:54.505Z,0.54
2023-04-08T01:27:54.558Z,0.52
2023-04-08T01:28:54.622Z,0.53
2023-04-08T01:29:54.681Z,0.52
2023-04-08T01:30:54.755Z,0.52
2023-04-08T01:31:54.775Z,0.53
2023-04-08T01:32:54.885Z,0.52
2023-04-08T01:33:54.902Z,0.53
2023-04-08T01:34:54.982Z,0.54
2023-04-08T01:35:55.088Z,0.52
2023-04-08T01:36:55.641Z,0.53
2023-04-08T01:37:55.092Z,0.53
2023-04-08T01:38:55.147Z,0.54
2023-04-08T01:39:55.210Z,0.53
2023-04-08T01:40:55.265Z,0.52
2023-04-08T01:41:55.317Z,0.54
2023-04-08T01:42:55.336Z,0.53
2023-04-08T01:43:55.342Z,0.53
2023-04-08T01:44:55.401Z,0.52
2023-04-08T01:45:55.405Z,0.53
2023-04-08T01:46:55.470Z,0.53
2023-04-08T01:47:55.498Z,0.53
2023-04-08T01:48:55.521Z,0.53
2023-04-08T01:49:55.586Z,0.53
2023-04-08T01:50:55.632Z,0.53
2023-04-08T01:51:55.692Z,0.53
2023-04-08T01:52:55.766Z,0.53
2023-04-08T01:53:55.727Z,0.53
2023-04-08T01:54:55.766Z,0.53
2023-04-08T01:55:55.787Z,0.53
2023-04-08T01:56:55.847Z,0.53
2023-04-08T01:57:55.823Z,0.53
2023-04-08T01:58:55.872Z,0.53
2023-04-08T01:59:55.892Z,0.52
2023-04-08T02:00:55.891Z,0.53
2023-04-08T02:01:56.006Z,0.52
2023-04-08T02:02:56.238Z,0.54
2023-04-08T02:03:56.020Z,0.53
2023-04-08T02:04:56.005Z,0.53
2023-04-08T02:05:56.006Z,0.54
2023-04-08T02:06:56.054Z,0.53
2023-04-08T02:07:56.064Z,0.52
2023-04-08T02:08:56.079Z,0.52
2023-04-08T02:09:56.077Z,0.53
2023-04-08T02:10:56.075Z,0.54
2023-04-08T02:11:56.088Z,0.53
2023-04-08T02:12:56.157Z,0.54
2023-04-08T02:13:56.173Z,0.54
2023-04-08T02:14:56.173Z,0.53
2023-04-08T02:15:56.194Z,0.53
2023-04-08T02:16:56.156Z,0.53
2023-04-08T02:17:56.257Z,0.53
2023-04-08T02:18:56.198Z,0.54
2023-04-08T02:19:56.205Z,0.53
2023-04-08T02:20:56.227Z,0.53
2023-04-08T02:21:56.261Z,0.53
2023-04-08T02:22:56.249Z,0.54
2023-04-08T02:23:56.288Z,0.53
2023-04-08T02:24:56.244Z,0.52
2023-04-08T02:25:56.284Z,0.53
2023-04-08T02:26:56.276Z,0.54
2023-04-08T02:27:56.271Z,0.55
2023-04-08T02:28:56.273Z,0.53
2023-04-08T02:29:56.315Z,0.53
2023-04-08T02:30:56.287Z,0.55
2023-04-08T02:31:56.342Z,0.54
2023-04-08T02:32:56.371Z,0.54
2023-04-08T02:33:56.313Z,0.53
2023-04-08T02:34:56.312Z,0.54
2023-04-08T02:35:56.331Z,0.53
2023-04-08T02:36:56.460Z,0.54
2023-04-08T02:37:56.270Z,0.54
2023-04-08T02:38:56.266Z,0.54
2023-04-08T02:39:56.293Z,0.54
2023-04-08T02:40:56.283Z,0.55
2023-04-08T02:41:56.293Z,0.53
2023-04-08T02:42:56.270Z,0.55
2023-04-08T02:43:56.267Z,0.54
2023-04-08T02:44:56.344Z,0.53
2023-04-08T02:45:56.338Z,0.54
2023-04-08T02:46:56.373Z,0.53
2023-04-08T02:47:56.392Z,0.54
2023-04-08T02:48:56.366Z,0.53
2023-04-08T02:49:56.314Z,0.54
2023-04-08T02:50:56.357Z,0.54
2023-04-08T02:51:56.379Z,0.54
2023-04-08T02:52:56.334Z,0.54
2023-04-08T02:53:56.307Z,0.54
2023-04-08T02:54:56.350Z,0.53
2023-04-08T02:55:56.335Z,0.54
2023-04-08T02:56:56.372Z,0.55
2023-04-08T02:57:56.330Z,0.55
2023-04-08T02:58:56.332Z,0.54
2023-04-08T02:59:56.317Z,0.55
2023-04-08T03:00:56.364Z,0.54
2023-04-08T03:01:56.396Z,0.54
2023-04-08T03:02:56.603Z,0.54
2023-04-08T03:03:56.307Z,0.54
2023-04-08T03:04:56.303Z,0.54
2023-04-08T03:05:56.329Z,0.54
2023-04-08T03:06:56.334Z,0.54
2023-04-08T03:07:56.325Z,0.54
2023-04-08T03:08:56.309Z,0.54
2023-04-08T03:09:56.287Z,0.54
2023-04-08T03:10:56.290Z,0.55
2023-04-08T03:11:56.291Z,0.53
2023-04-08T03:12:56.317Z,0.54
2023-04-08T03:13:56.339Z,0.54
2023-04-08T03:14:56.317Z,0.54
2023-04-08T03:15:56.278Z,0.54
2023-04-08T03:16:56.416Z,0.54
2023-04-08T03:17:56.455Z,0.54
2023-04-08T03:18:56.293Z,0.55
2023-04-08T03:19:56.317Z,0.54
2023-04-08T03:20:56.274Z,0.53
2023-04-08T03:21:56.283Z,0.54
2023-04-08T03:22:56.297Z,0.54
2023-04-08T03:23:56.299Z,0.55
2023-04-08T03:24:56.303Z,0.55
2023-04-08T03:25:56.278Z,0.54
2023-04-08T03:26:56.286Z,0.54
2023-04-08T03:27:56.307Z,0.53
2023-04-08T03:28:56.333Z,0.54
2023-04-08T03:31:14.985Z,0.50
2023-04-08T03:32:15.033Z,0.50
2023-04-08T03:33:15.030Z,0.50
2023-04-08T03:34:15.035Z,0.50
2023-04-08T03:35:15.057Z,0.50
2023-04-08T03:36:15.013Z,0.50
2023-04-08T03:37:15.006Z,0.51
2023-04-08T03:38:14.997Z,0.51
2023-04-08T03:39:15.040Z,0.51
2023-04-08T03:40:14.980Z,0.50
2023-04-08T03:41:14.986Z,0.51
2023-04-08T03:42:14.955Z,0.51
2023-04-08T03:43:14.981Z,0.51
2023-04-08T03:44:14.961Z,0.51
2023-04-08T03:45:14.963Z,0.51
2023-04-08T03:46:14.999Z,0.50
2023-04-08T03:47:14.921Z,0.50
2023-04-08T03:48:14.933Z,0.51
2023-04-08T03:49:14.955Z,0.51
2023-04-08T03:50:14.907Z,0.51
2023-04-08T03:51:14.922Z,0.51
2023-04-08T03:52:14.886Z,0.52
2023-04-08T03:53:14.902Z,0.51
2023-04-08T03:54:14.935Z,0.51
2023-04-08T03:55:14.892Z,0.51
2023-04-08T03:56:14.878Z,0.50
2023-04-08T03:57:14.894Z,0.51
2023-04-08T03:58:14.863Z,0.52
2023-04-08T03:59:14.908Z,0.51
2023-04-08T04:00:14.843Z,0.50
2023-04-08T04:01:14.855Z,0.51
2023-04-08T04:02:15.015Z,0.52
2023-04-08T04:03:15.037Z,0.52
2023-04-08T04:04:14.933Z,0.51
2023-04-08T04:05:14.851Z,0.52
2023-04-08T04:06:14.814Z,0.51
2023-04-08T04:07:14.864Z,0.51
2023-04-08T04:08:14.798Z,0.51
2023-04-08T04:09:14.831Z,0.51
2023-04-08T04:10:14.780Z,0.51
2023-04-08T04:11:14.792Z,0.50
2023-04-08T04:12:14.781Z,0.51
2023-04-08T04:13:14.817Z,0.51
2023-04-08T04:14:14.805Z,0.51
2023-04-08T04:15:14.751Z,0.52
2023-04-08T04:16:14.775Z,0.51
2023-04-08T04:17:14.831Z,0.52
2023-04-08T04:18:14.767Z,0.51
2023-04-08T04:19:14.725Z,0.51
2023-04-08T04:20:14.738Z,0.52
2023-04-08T04:21:14.744Z,0.52
2023-04-08T04:22:14.790Z,0.51
2023-04-08T04:23:14.690Z,0.51
2023-04-08T04:24:14.742Z,0.52
2023-04-08T04:25:14.754Z,0.53
2023-04-08T04:26:14.702Z,0.52
2023-04-08T04:27:14.652Z,0.52
2023-04-08T04:28:14.642Z,0.51
2023-04-08T04:29:14.731Z,0.51
2023-04-08T04:30:14.636Z,0.52
2023-04-08T04:31:14.702Z,0.51
2023-04-08T04:32:14.675Z,0.52
2023-04-08T04:33:14.640Z,0.52
2023-04-08T04:34:14.657Z,0.51
2023-04-08T04:35:14.640Z,0.52
2023-04-08T04:36:14.600Z,0.52
2023-04-08T04:37:14.618Z,0.52
2023-04-08T04:38:14.613Z,0.52
2023-04-08T04:39:14.640Z,0.52
2023-04-08T04:40:14.573Z,0.51
2023-04-08T04:41:14.583Z,0.53
2023-04-08T04:42:14.587Z,0.52
2023-04-08T04:43:14.557Z,0.52
2023-04-08T04:44:14.550Z,0.52
2023-04-08T04:45:14.563Z,0.52
2023-04-08T04:46:14.589Z,0.52
2023-04-08T04:47:14.573Z,0.52
2023-04-08T04:48:14.530Z,0.53
2023-04-08T04:49:14.526Z,0.51
2023-04-08T04:50:14.491Z,0.52
2023-04-08T04:51:14.497Z,0.53
2023-04-08T04:52:14.508Z,0.51
2023-04-08T04:53:14.480Z,0.52
2023-04-08T04:54:14.516Z,0.52
2023-04-08T04:55:14.465Z,0.52
2023-04-08T04:56:14.484Z,0.51
2023-04-08T04:57:14.446Z,0.52
2023-04-08T04:58:14.523Z,0.52
2023-04-08T04:59:14.510Z,0.52
2023-04-08T05:00:14.534Z,0.52
2023-04-08T05:01:14.485Z,0.52
2023-04-08T05:02:14.527Z,0.52
2023-04-08T05:03:14.461Z,0.53
2023-04-08T05:04:14.422Z,0.53
2023-04-08T05:05:14.457Z,0.53
2023-04-08T05:06:14.444Z,0.52
2023-04-08T05:07:14.453Z,0.54
2023-04-08T05:08:14.458Z,0.52
2023-04-08T05:09:14.429Z,0.53
2023-04-08T05:10:14.419Z,0.52
2023-04-08T05:11:14.481Z,0.52
2023-04-08T05:12:14.373Z,0.53
2023-04-08T05:13:14.397Z,0.53
2023-04-08T05:14:14.399Z,0.53
2023-04-08T05:15:14.371Z,0.54
2023-04-08T05:16:14.368Z,0.53
2023-04-08T05:17:14.349Z,0.52
2023-04-08T05:18:14.315Z,0.53
2023-04-08T05:19:14.324Z,0.53
2023-04-08T05:20:16.390Z,0.53
2023-04-08T05:21:14.313Z,0.53
2023-04-08T05:22:14.318Z,0.53
2023-04-08T05:23:14.327Z,0.53
2023-04-08T05:24:14.327Z,0.52
2023-04-08T05:25:14.328Z,0.53
2023-04-08T05:26:16.281Z,0.53
2023-04-08T05:27:14.275Z,0.53
2023-04-08T05:28:14.286Z,0.53
2023-04-08T05:29:14.296Z,0.53
2023-04-08T05:30:14.247Z,0.53
2023-04-08T05:31:14.317Z,0.53
2023-04-08T05:32:14.262Z,0.53
2023-04-08T05:33:14.249Z,0.53
2023-04-08T05:34:14.224Z,0.53
2023-04-08T05:35:14.233Z,0.54
2023-04-08T05:36:14.252Z,0.53
2023-04-08T05:37:14.254Z,0.52
2023-04-08T05:38:14.221Z,0.53
2023-04-08T05:39:14.213Z,0.53
2023-04-08T05:40:14.228Z,0.53
2023-04-08T05:41:14.224Z,0.53
2023-04-08T05:42:14.337Z,0.53
2023-04-08T05:43:14.245Z,0.52
2023-04-08T05:44:14.305Z,0.53
2023-04-08T05:45:14.310Z,0.54
2023-04-08T05:46:14.437Z,0.53
2023-04-08T05:47:14.336Z,0.53
2023-04-08T05:48:14.320Z,0.53
2023-04-08T05:49:14.337Z,0.53
2023-04-08T05:50:14.434Z,0.53
2023-04-08T05:51:14.404Z,0.52
2023-04-08T05:52:14.410Z,0.54
2023-04-08T05:53:14.416Z,0.53
2023-04-08T05:54:14.536Z,0.53
2023-04-08T05:55:14.534Z,0.53
2023-04-08T05:56:14.489Z,0.52
2023-04-08T05:57:14.485Z,0.53
2023-04-08T05:58:14.501Z,0.54
2023-04-08T05:59:14.520Z,0.53
2023-04-08T06:00:14.562Z,0.53
2023-04-08T06:01:14.513Z,0.53
2023-04-08T06:02:14.688Z,0.54
2023-04-08T06:03:15.495Z,0.54
2023-04-08T06:04:14.706Z,0.54
2023-04-08T06:05:14.588Z,0.52
2023-04-08T06:06:14.565Z,0.53
2023-04-08T06:07:14.656Z,0.54
2023-04-08T06:08:14.631Z,0.53
2023-04-08T06:09:14.687Z,0.54
2023-04-08T06:10:14.686Z,0.54
2023-04-08T06:11:14.689Z,0.54
2023-04-08T06:12:14.687Z,0.54
2023-04-08T06:13:14.915Z,0.53
2023-04-08T06:14:14.705Z,0.53
2023-04-08T06:15:14.764Z,0.54
2023-04-08T06:16:14.747Z,0.53
2023-04-08T06:17:14.715Z,0.54
2023-04-08T06:18:14.722Z,0.54
2023-04-08T06:19:14.764Z,0.54
2023-04-08T06:20:14.738Z,0.53
2023-04-08T06:21:14.741Z,0.53
2023-04-08T06:22:14.758Z,0.54
2023-04-08T06:23:14.756Z,0.53
2023-04-08T06:24:14.776Z,0.54
2023-04-08T06:25:14.766Z,0.54
2023-04-08T06:26:14.737Z,0.54
2023-04-08T06:27:14.758Z,0.54
2023-04-08T06:28:14.750Z,0.54
2023-04-08T06:29:14.758Z,0.54
2023-04-08T06:30:14.753Z,0.54
2023-04-08T06:31:14.764Z,0.54
2023-04-08T06:32:14.773Z,0.53
2023-04-08T06:33:14.730Z,0.53
2023-04-08T06:34:14.782Z,0.54
2023-04-08T06:35:14.788Z,0.55
2023-04-08T06:36:14.843Z,0.54
2023-04-08T06:37:14.928Z,0.54
2023-04-08T06:38:14.863Z,0.55
2023-04-08T06:39:14.868Z,0.54
2023-04-08T06:40:14.882Z,0.55
2023-04-08T06:41:14.940Z,0.55
2023-04-08T06:42:15.000Z,0.55
2023-04-08T06:43:15.062Z,0.55
2023-04-08T06:44:15.115Z,0.56
2023-04-08T06:45:15.168Z,0.55
2023-04-08T06:46:15.287Z,0.56
2023-04-08T06:47:15.225Z,0.56
2023-04-08T06:48:15.300Z,0.56
2023-04-08T06:49:15.402Z,0.55
2023-04-08T06:50:15.411Z,0.55
2023-04-08T06:51:15.516Z,0.56
2023-04-08T06:52:15.526Z,0.54
2023-04-08T06:53:15.586Z,0.55
2023-04-08T06:54:15.582Z,0.55
2023-04-08T06:55:15.655Z,0.56
2023-04-08T06:56:15.731Z,0.55
2023-04-08T06:57:15.705Z,0.55
2023-04-08T06:58:15.760Z,0.56
2023-04-08T06:59:15.788Z,0.56
2023-04-08T07:00:15.858Z,0.56
2023-04-08T07:01:15.874Z,0.56
2023-04-08T07:02:15.925Z,0.56
2023-04-08T07:03:15.925Z,0.55
2023-04-08T07:04:16.050Z,0.56
2023-04-08T07:05:15.986Z,0.56
2023-04-08T07:06:16.045Z,0.56
2023-04-08T07:07:16.036Z,0.55
2023-04-08T07:08:16.091Z,0.56
2023-04-08T07:09:16.172Z,0.56
2023-04-08T07:10:16.148Z,0.56
2023-04-08T07:11:16.168Z,0.56
2023-04-08T07:12:16.179Z,0.56
2023-04-08T07:13:16.231Z,0.56
2023-04-08T07:14:16.238Z,0.56
2023-04-08T07:15:16.305Z,0.56
2023-04-08T07:16:16.380Z,0.56
2023-04-08T07:17:16.362Z,0.55
2023-04-08T07:18:16.426Z,0.57
2023-04-08T07:19:16.414Z,0.56
2023-04-08T07:20:16.429Z,0.56
2023-04-08T07:21:16.497Z,0.56
2023-04-08T07:22:16.498Z,0.56
2023-04-08T07:23:16.620Z,0.56
2023-04-08T07:24:16.551Z,0.57
2023-04-08T07:25:16.570Z,0.57
2023-04-08T07:26:16.621Z,0.56
2023-04-08T07:27:16.634Z,0.56
2023-04-08T07:28:16.648Z,0.57
2023-04-08T07:29:16.704Z,0.56
2023-04-08T07:30:16.700Z,0.57
2023-04-08T07:31:16.878Z,0.56
2023-04-08T07:32:16.780Z,0.56
2023-04-08T07:33:16.807Z,0.56
2023-04-08T07:34:16.843Z,0.57
2023-04-08T07:35:16.852Z,0.57
2023-04-08T07:36:16.914Z,0.56
2023-04-08T07:37:16.915Z,0.56
2023-04-08T07:38:16.917Z,0.56
2023-04-08T07:39:16.983Z,0.56
2023-04-08T07:40:16.985Z,0.56
2023-04-08T07:41:17.057Z,0.57
2023-04-08T07:42:17.036Z,0.58
2023-04-08T07:43:17.042Z,0.56
2023-04-08T07:44:17.133Z,0.57
2023-04-08T07:45:17.112Z,0.56
2023-04-08T07:46:17.229Z,0.57
2023-04-08T07:47:17.183Z,0.56
2023-04-08T07:48:17.237Z,0.56
2023-04-08T07:49:17.251Z,0.56
2023-04-08T07:50:17.319Z,0.56
2023-04-08T07:51:17.315Z,0.57
2023-04-08T07:52:17.337Z,0.57
2023-04-08T07:53:17.326Z,0.56
2023-04-08T07:54:17.283Z,0.57
2023-04-08T07:55:17.289Z,0.56
2023-04-08T07:56:17.284Z,0.56
2023-04-08T07:57:17.292Z,0.57
2023-04-08T07:58:17.243Z,0.56
2023-04-08T07:59:17.259Z,0.57
2023-04-08T08:00:17.277Z,0.57
2023-04-08T08:01:17.221Z,0.56
2023-04-08T08:02:17.332Z,0.56
2023-04-08T08:03:17.290Z,0.56
2023-04-08T08:04:17.322Z,0.56
2023-04-08T08:05:17.373Z,0.57
2023-04-08T08:06:17.199Z,0.56
2023-04-08T08:07:17.216Z,0.57
2023-04-08T08:08:17.223Z,0.57
2023-04-08T08:09:17.228Z,0.58
2023-04-08T08:10:17.193Z,0.56
2023-04-08T08:11:17.234Z,0.57
2023-04-08T08:12:17.187Z,0.56
2023-04-08T08:13:17.197Z,0.56
2023-04-08T08:14:17.165Z,0.57
2023-04-08T08:15:17.164Z,0.58
2023-04-08T08:16:17.207Z,0.57
2023-04-08T08:17:17.182Z,0.57
2023-04-08T08:18:17.131Z,0.57
2023-04-08T08:19:17.144Z,0.57
2023-04-08T08:20:17.146Z,0.57
2023-04-08T08:21:17.107Z,0.57
2023-04-08T08:22:17.130Z,0.57
2023-04-08T08:23:17.122Z,0.57
2023-04-08T08:24:17.136Z,0.56
2023-04-08T08:25:17.081Z,0.57
2023-04-08T08:26:17.090Z,0.58
2023-04-08T08:27:17.098Z,0.57
2023-04-08T08:28:17.063Z,0.58
2023-04-08T08:29:17.053Z,0.56
2023-04-08T08:30:17.070Z,0.55
2023-04-08T08:31:17.093Z,0.56
2023-04-08T08:32:17.086Z,0.57
2023-04-08T08:33:17.033Z,0.57
2023-04-08T08:34:17.047Z,0.58
2023-04-08T08:35:17.049Z,0.58
2023-04-08T08:36:17.032Z,0.56
2023-04-08T08:37:17.059Z,0.57
2023-04-08T08:38:17.033Z,0.57
2023-04-08T08:39:17.033Z,0.57
2023-04-08T08:40:16.982Z,0.56
2023-04-08T08:41:16.988Z,0.55
2023-04-08T08:42:17.051Z,0.59
2023-04-08T08:43:16.995Z,0.57
2023-04-08T08:44:17.017Z,0.54
2023-04-08T08:45:16.963Z,0.57
2023-04-08T08:46:16.975Z,0.58
2023-04-08T08:47:17.051Z,0.56
2023-04-08T08:48:16.919Z,0.55
2023-04-08T08:49:16.928Z,0.55
2023-04-08T08:50:16.957Z,0.60
2023-04-08T08:51:16.952Z,0.59
2023-04-08T08:52:16.962Z,0.59
2023-04-08T08:53:16.979Z,0.56
2023-04-08T08:54:17.128Z,0.55
2023-04-08T08:56:18.656Z,0.58
2023-04-08T08:57:17.083Z,0.58
2023-04-08T08:58:17.084Z,0.58
2023-04-08T08:59:17.116Z,0.59
2023-04-08T09:00:17.117Z,0.57
2023-04-08T09:01:17.082Z,0.57
2023-04-08T09:02:17.190Z,0.58
2023-04-08T09:03:17.188Z,0.58
2023-04-08T09:04:17.433Z,0.58
2023-04-08T09:05:17.553Z,0.59
2023-04-08T09:06:17.265Z,0.56
2023-04-08T09:07:17.333Z,0.59
2023-04-08T09:08:17.390Z,0.60
2023-04-08T09:09:17.435Z,0.57
2023-04-08T09:10:17.448Z,0.57
2023-04-08T09:11:17.559Z,0.58
2023-04-08T09:12:18.210Z,0.58
2023-04-08T09:13:17.618Z,0.57
2023-04-08T09:14:17.624Z,0.57
2023-04-08T09:15:17.686Z,0.59
2023-04-08T09:16:17.932Z,0.59
2023-04-08T09:17:17.804Z,0.60
2023-04-08T09:18:17.937Z,0.60
2023-04-08T09:19:17.908Z,0.63
2023-04-08T09:20:17.983Z,0.58
2023-04-08T09:21:17.984Z,0.60
2023-04-08T09:22:18.043Z,0.60
2023-04-08T09:23:18.095Z,0.58
2023-04-08T09:24:18.156Z,0.60
2023-04-08T09:25:18.205Z,0.60
2023-04-08T09:26:18.256Z,0.59
2023-04-08T09:27:18.309Z,0.62
2023-04-08T09:28:18.317Z,0.57
2023-04-08T09:29:25.972Z,0.59
2023-04-08T09:30:19.439Z,0.59
2023-04-08T09:33:04.849Z,0.50
2023-04-08T09:34:04.809Z,0.50
2023-04-08T09:35:06.874Z,0.50
2023-04-08T09:36:04.710Z,0.50
2023-04-08T09:37:04.729Z,0.50
2023-04-08T09:38:04.730Z,0.50
2023-04-08T09:39:04.783Z,0.50
2023-04-08T09:40:04.940Z,0.52
2023-04-08T09:41:04.810Z,0.51
2023-04-08T09:42:04.908Z,0.50
2023-04-08T09:43:04.963Z,0.52
2023-04-08T09:44:05.016Z,0.51
2023-04-08T09:45:05.093Z,0.53
2023-04-08T09:46:05.258Z,0.51
2023-04-08T09:47:05.189Z,0.51
2023-04-08T09:48:05.268Z,0.51
2023-04-08T09:49:05.270Z,0.50
2023-04-08T09:50:05.336Z,0.53
2023-04-08T09:51:05.374Z,0.50
2023-04-08T09:52:05.452Z,0.55
2023-04-08T09:53:05.494Z,0.50
2023-04-08T09:54:05.549Z,0.52
2023-04-08T09:55:06.323Z,0.55
2023-04-08T09:56:05.640Z,0.50
2023-04-08T09:57:05.723Z,0.53
2023-04-08T09:58:05.803Z,0.52
2023-04-08T09:59:06.906Z,0.54
2023-04-08T10:00:05.884Z,0.53
2023-04-08T10:01:05.926Z,0.53
2023-04-08T10:02:06.130Z,0.53
2023-04-08T10:03:11.480Z,0.51
2023-04-08T10:04:06.246Z,0.52
2023-04-08T10:05:08.334Z,0.52
2023-04-08T10:06:06.297Z,0.53
2023-04-08T10:07:06.310Z,0.52
2023-04-08T10:08:06.379Z,0.53
2023-04-08T10:09:06.415Z,0.54
2023-04-08T10:10:06.466Z,0.53
2023-04-08T10:11:06.533Z,0.55
2023-04-08T10:12:06.535Z,0.53
2023-04-08T10:13:06.658Z,0.55
2023-04-08T10:14:06.667Z,0.52
2023-04-08T10:15:06.718Z,0.52
2023-04-08T10:16:07.621Z,0.53
2023-04-08T10:17:06.911Z,0.52
2023-04-08T10:18:06.933Z,0.52
2023-04-08T10:19:06.879Z,0.52
2023-04-08T10:20:07.071Z,0.54
2023-04-08T10:21:06.975Z,0.51
2023-04-08T10:22:08.027Z,0.54
2023-04-08T10:23:07.095Z,0.55
2023-04-08T10:24:07.130Z,0.54
2023-04-08T10:25:07.213Z,0.52
2023-04-08T10:26:07.280Z,0.55
2023-04-08T10:27:07.297Z,0.53
2023-04-08T10:28:07.643Z,0.56
2023-04-08T10:29:07.423Z,0.54
2023-04-08T10:30:07.521Z,0.54
2023-04-08T10:31:07.518Z,0.54
2023-04-08T10:32:07.681Z,0.52
2023-04-08T10:33:07.630Z,0.56
2023-04-08T10:35:26.540Z,0.50
2023-04-08T10:36:26.523Z,0.50
2023-04-08T10:37:26.530Z,0.50
2023-04-08T10:38:26.515Z,0.50
2023-04-08T10:39:26.499Z,0.50
2023-04-08T10:40:26.457Z,0.48
2023-04-08T10:41:26.505Z,0.50
2023-04-08T10:42:26.504Z,0.51
2023-04-08T10:43:26.478Z,0.50
2023-04-08T10:44:26.479Z,0.53
2023-04-08T10:45:26.500Z,0.50
2023-04-08T10:46:26.520Z,0.52
2023-04-08T10:47:26.462Z,0.53
2023-04-08T10:48:26.444Z,0.53
2023-04-08T10:49:26.454Z,0.53
2023-04-08T10:50:26.566Z,0.50
2023-04-08T10:51:26.562Z,0.51
2023-04-08T10:52:26.636Z,0.54
2023-04-08T10:53:26.671Z,0.54
2023-04-08T10:54:26.750Z,0.54
2023-04-08T10:55:26.819Z,0.54
2023-04-08T10:56:26.865Z,0.51
2023-04-08T10:57:26.913Z,0.54
2023-04-08T10:58:26.993Z,0.54
2023-04-08T10:59:27.094Z,0.52
2023-04-08T11:00:27.058Z,0.55
2023-04-08T11:01:27.240Z,0.52
2023-04-08T11:02:27.298Z,0.51
2023-04-08T11:03:27.487Z,0.54
2023-04-08T11:04:27.560Z,0.51
2023-04-08T11:05:27.378Z,0.52
2023-04-08T11:06:27.424Z,0.52
2023-04-08T11:07:27.498Z,0.54
2023-04-08T11:08:27.528Z,0.55
2023-04-08T11:09:27.638Z,0.55
2023-04-08T11:10:27.718Z,0.50
2023-04-08T11:11:27.743Z,0.53
2023-04-08T11:12:27.796Z,0.55
2023-04-08T11:13:27.808Z,0.53
2023-04-08T11:14:27.884Z,0.54
2023-04-08T11:16:28.121Z,0.54
2023-04-08T11:17:28.112Z,0.53
2023-04-08T11:18:28.157Z,0.52
2023-04-08T11:19:28.201Z,0.53
2023-04-08T11:20:28.266Z,0.53
2023-04-08T11:21:28.300Z,0.51
2023-04-08T11:22:28.455Z,0.52
2023-04-08T11:23:28.429Z,0.51
2023-04-08T11:24:28.465Z,0.55
2023-04-08T11:25:28.553Z,0.53
2023-04-08T11:26:28.538Z,0.53
2023-04-08T11:27:28.776Z,0.54
2023-04-08T11:28:28.669Z,0.53
2023-04-08T11:29:28.787Z,0.51
2023-04-08T11:30:28.791Z,0.52
2023-04-08T11:31:29.049Z,0.51
2023-04-08T11:32:28.904Z,0.54
2023-04-08T11:33:28.894Z,0.52
2023-04-08T11:34:29.036Z,0.54
2023-04-08T11:35:29.052Z,0.55
2023-04-08T11:36:29.147Z,0.55
2023-04-08T11:37:29.721Z,0.53
2023-04-08T11:38:29.290Z,0.55
2023-04-08T11:39:29.254Z,0.52
2023-04-08T11:40:29.330Z,0.54
2023-04-08T11:41:29.328Z,0.52
2023-04-08T11:42:29.394Z,0.53
2023-04-08T11:43:29.449Z,0.52
2023-04-08T11:44:29.494Z,0.52
2023-04-08T11:45:29.563Z,0.52
2023-04-08T11:46:29.566Z,0.56
2023-04-08T11:47:29.671Z,0.53
2023-04-08T11:48:29.689Z,0.54
2023-04-08T11:49:29.695Z,0.55
2023-04-08T11:50:29.793Z,0.55
2023-04-08T11:51:29.831Z,0.55
2023-04-08T11:52:29.808Z,0.53
2023-04-08T11:53:29.954Z,0.55
2023-04-08T11:54:29.968Z,0.54
2023-04-08T11:55:29.969Z,0.53
2023-04-08T11:56:30.000Z,0.57
2023-04-08T11:57:30.121Z,0.56
2023-04-08T11:58:30.091Z,0.55
2023-04-08T11:59:30.140Z,0.53
2023-04-08T12:00:30.311Z,0.55
2023-04-08T12:01:30.375Z,0.55
2023-04-08T12:02:30.291Z,0.54
2023-04-08T12:03:30.467Z,0.53
2023-04-08T12:04:30.551Z,0.53
2023-04-08T12:05:30.425Z,0.54
2023-04-08T12:06:30.420Z,0.54
2023-04-08T12:07:30.472Z,0.53
2023-04-08T12:08:30.567Z,0.54
2023-04-08T12:09:30.588Z,0.54
2023-04-08T12:10:30.600Z,0.54
2023-04-08T12:11:30.673Z,0.53
2023-04-08T12:12:30.661Z,0.53
2023-04-08T12:13:30.785Z,0.54
2023-04-08T12:14:30.808Z,0.55
2023-04-08T12:15:30.813Z,0.54
2023-04-08T12:16:30.876Z,0.53
2023-04-08T12:17:30.982Z,0.55
2023-04-08T12:18:30.961Z,0.58
2023-04-08T12:19:33.454Z,0.54
2023-04-08T12:20:31.071Z,0.53
2023-04-08T12:21:31.013Z,0.54
2023-04-08T12:22:31.035Z,0.55
2023-04-08T12:23:31.066Z,0.55
2023-04-08T12:24:31.014Z,0.54
2023-04-08T12:25:30.979Z,0.56
2023-04-08T12:26:30.984Z,0.54
2023-04-08T12:27:31.017Z,0.55
2023-04-08T12:28:30.921Z,0.55
2023-04-08T12:29:30.984Z,0.53
2023-04-08T12:30:31.039Z,0.53
2023-04-08T12:31:30.988Z,0.55
2023-04-08T12:32:30.988Z,0.53
2023-04-08T12:33:30.941Z,0.54
2023-04-08T12:34:30.925Z,0.54
2023-04-08T12:35:31.079Z,0.55
2023-04-08T12:36:30.939Z,0.54
2023-04-08T12:37:30.957Z,0.53
2023-04-08T12:38:30.950Z,0.53
2023-04-08T12:39:30.914Z,0.55
2023-04-08T12:40:30.870Z,0.53
2023-04-08T12:41:30.879Z,0.55
2023-04-08T12:42:30.912Z,0.53
2023-04-08T12:43:30.884Z,0.54
2023-04-08T12:44:30.902Z,0.56
2023-04-08T12:45:30.937Z,0.52
2023-04-08T12:46:30.859Z,0.52
2023-04-08T12:47:30.937Z,0.56
2023-04-08T12:48:30.822Z,0.52
2023-04-08T12:49:34.138Z,0.57
2023-04-08T12:50:31.905Z,0.56
2023-04-08T12:51:30.829Z,0.57
2023-04-08T12:52:30.869Z,0.54
2023-04-08T12:53:30.786Z,0.53
2023-04-08T12:54:30.798Z,0.54
2023-04-08T12:55:30.805Z,0.54
2023-04-08T12:56:30.779Z,0.54
2023-04-08T12:57:30.811Z,0.53
2023-04-08T12:58:30.774Z,0.53
2023-04-08T12:59:30.738Z,0.54
2023-04-08T13:00:30.756Z,0.55
2023-04-08T13:01:31.145Z,0.53
2023-04-08T13:02:31.120Z,0.55
2023-04-08T13:03:31.031Z,0.53
2023-04-08T13:04:30.959Z,0.54
2023-04-08T13:05:42.817Z,0.53
2023-04-08T13:06:32.040Z,0.54
2023-04-08T13:07:30.957Z,0.54
2023-04-08T13:08:30.987Z,0.53
2023-04-08T13:09:30.999Z,0.54
2023-04-08T13:10:30.946Z,0.53
2023-04-08T13:11:30.985Z,0.53
2023-04-08T13:12:30.996Z,0.55
2023-04-08T13:13:30.924Z,0.56
2023-04-08T13:14:30.947Z,0.56
2023-04-08T13:15:30.950Z,0.55
2023-04-08T13:16:30.946Z,0.55
2023-04-08T13:17:31.013Z,0.54
2023-04-08T13:18:31.075Z,0.55
2023-04-08T13:19:31.057Z,0.54
2023-04-08T13:20:31.068Z,0.53
2023-04-08T13:21:31.199Z,0.54
2023-04-08T13:22:31.210Z,0.54
2023-04-08T13:23:31.215Z,0.53
2023-04-08T13:24:31.297Z,0.53
2023-04-08T13:25:31.411Z,0.54